createdAt,value
2018-04-19T00:02:00.129Z,48.70
2018-04-19T00:04:27.674Z,48.50
2018-04-19T00:06:55.229Z,48.30
2018-04-19T00:09:22.757Z,48.00
2018-04-19T00:11:51.127Z,47.70
2018-04-19T00:14:18.646Z,47.60
2018-04-19T00:16:47.157Z,48.20
2018-04-19T00:19:15.389Z,48.20
2018-04-19T00:21:43.897Z,48.00
2018-04-19T00:24:13.425Z,47.80
2018-04-19T00:26:40.961Z,48.00
2018-04-19T00:29:08.506Z,47.60
2018-04-19T00:31:36.061Z,47.30
2018-04-19T00:34:04.562Z,47.50
2018-04-19T00:36:32.132Z,47.50
2018-04-19T00:38:59.681Z,47.50
2018-04-19T00:41:27.237Z,47.50
2018-04-19T00:43:54.762Z,47.90
2018-04-19T00:46:22.289Z,48.90
2018-04-19T00:48:50.641Z,48.00
2018-04-19T00:51:18.192Z,47.50
2018-04-19T00:53:45.749Z,47.20
2018-04-19T00:56:13.294Z,46.90
2018-04-19T00:58:40.865Z,49.30
2018-04-19T01:01:08.402Z,49.70
2018-04-19T01:03:36.891Z,49.40
2018-04-19T01:06:04.440Z,49.50
2018-04-19T01:08:31.982Z,51.60
2018-04-19T01:11:00.300Z,48.20
2018-04-19T01:13:28.784Z,48.10
2018-04-19T01:15:56.340Z,47.90
2018-04-19T01:18:23.863Z,47.90
2018-04-19T01:20:51.405Z,47.70
2018-04-19T01:23:18.958Z,47.90
2018-04-19T01:25:46.518Z,48.70
2018-04-19T01:28:14.848Z,47.20
2018-04-19T01:30:42.712Z,47.20
2018-04-19T01:33:10.277Z,47.00
2018-04-19T01:35:49.512Z,47.00
2018-04-19T01:38:17.070Z,47.00
2018-04-19T01:40:44.592Z,52.10
2018-04-19T01:43:12.139Z,54.30
2018-04-19T01:45:39.693Z,55.70
2018-04-19T01:48:08.012Z,58.80
2018-04-19T01:50:35.566Z,58.60
2018-04-19T01:53:03.107Z,60.00
2018-04-19T01:55:30.666Z,61.20
2018-04-19T01:57:58.206Z,63.20
2018-04-19T02:00:25.738Z,64.30
2018-04-19T02:02:53.312Z,65.40
2018-04-19T02:05:20.857Z,66.80
2018-04-19T02:07:48.414Z,67.80
2018-04-19T02:10:15.961Z,69.20
2018-04-19T02:12:43.521Z,69.90
2018-04-19T02:15:11.055Z,70.20
2018-04-19T02:17:38.611Z,71.00
2018-04-19T02:20:06.409Z,72.50
2018-04-19T02:22:33.942Z,73.70
2018-04-19T02:25:01.497Z,74.90
2018-04-19T02:27:29.040Z,75.40
2018-04-19T02:29:56.597Z,75.60
2018-04-19T02:32:24.129Z,76.40
2018-04-19T02:34:52.633Z,76.60
2018-04-19T02:37:20.191Z,77.00
2018-04-19T02:39:47.769Z,75.50
2018-04-19T02:42:15.321Z,73.00
2018-04-19T02:44:42.890Z,69.00
2018-04-19T02:47:10.416Z,67.50
2018-04-19T02:49:39.950Z,64.80
2018-04-19T02:52:08.442Z,64.80
2018-04-19T02:54:35.992Z,69.10
2018-04-19T02:57:03.553Z,71.40
2018-04-19T02:59:31.124Z,73.00
2018-04-19T03:01:58.663Z,73.90
2018-04-19T03:04:26.209Z,74.60
2018-04-19T03:06:53.737Z,75.10
2018-04-19T03:09:22.026Z,76.40
2018-04-19T03:11:50.346Z,76.50
2018-04-19T03:14:17.876Z,76.50
2018-04-19T03:16:45.437Z,76.70
2018-04-19T03:19:12.964Z,76.80
2018-04-19T03:21:40.753Z,77.00
2018-04-19T03:24:08.301Z,78.10
2018-04-19T03:26:36.663Z,78.90
2018-04-19T03:29:04.232Z,78.90
2018-04-19T03:31:31.798Z,78.10
2018-04-19T03:34:00.149Z,77.90
2018-04-19T03:36:27.685Z,77.80
2018-04-19T03:38:55.252Z,78.70
2018-04-19T03:41:22.769Z,78.70
2018-04-19T03:43:50.328Z,79.10
2018-04-19T03:46:18.163Z,79.20
2018-04-19T03:48:45.727Z,79.50
2018-04-19T03:51:14.080Z,79.40
2018-04-19T03:53:41.627Z,79.30
2018-04-19T03:56:09.173Z,79.30
2018-04-19T03:58:36.689Z,80.30
2018-04-19T04:01:04.283Z,80.50
2018-04-19T04:03:32.725Z,81.90
2018-04-19T04:06:01.070Z,81.80
2018-04-19T04:08:28.584Z,81.70
2018-04-19T04:10:56.161Z,81.80
2018-04-19T04:13:23.724Z,82.60
2018-04-19T04:15:51.283Z,83.20
2018-04-19T04:18:30.697Z,84.40
2018-04-19T04:21:11.140Z,84.40
2018-04-19T04:23:51.214Z,85.00
2018-04-19T04:26:19.760Z,84.90
2018-04-19T04:28:47.287Z,85.60
2018-04-19T04:31:14.928Z,85.50
2018-04-19T04:33:42.402Z,85.40
2018-04-19T04:36:10.012Z,85.30
2018-04-19T04:38:37.570Z,85.60
2018-04-19T04:41:05.118Z,85.90
2018-04-19T04:43:33.448Z,86.00
2018-04-19T04:46:00.982Z,85.90
2018-04-19T04:48:29.500Z,85.70
2018-04-19T04:50:57.029Z,86.00
2018-04-19T04:53:25.477Z,86.10
2018-04-19T04:55:53.810Z,86.50
2018-04-19T04:58:21.357Z,86.30
2018-04-19T05:00:48.898Z,86.40
2018-04-19T05:03:16.476Z,87.00
2018-04-19T05:05:44.085Z,87.10
2018-04-19T05:08:11.618Z,87.40
2018-04-19T05:10:39.176Z,87.40
2018-04-19T05:13:06.737Z,86.90
2018-04-19T05:15:34.321Z,86.40
2018-04-19T05:18:01.876Z,86.10
2018-04-19T05:20:29.404Z,85.80
2018-04-19T05:22:56.967Z,85.30
2018-04-19T05:25:24.492Z,85.30
2018-04-19T05:27:52.413Z,84.90
2018-04-19T05:30:19.944Z,84.80
2018-04-19T05:32:47.480Z,85.30
2018-04-19T05:35:15.063Z,85.30
2018-04-19T05:37:42.584Z,84.90
2018-04-19T05:40:10.361Z,84.10
2018-04-19T05:42:37.885Z,84.30
2018-04-19T05:45:05.630Z,84.00
2018-04-19T05:47:33.160Z,84.40
2018-04-19T05:50:00.688Z,83.10
2018-04-19T05:52:30.019Z,80.60
2018-04-19T05:54:57.572Z,80.60
2018-04-19T05:57:25.144Z,81.00
2018-04-19T05:59:52.669Z,78.30
2018-04-19T06:02:20.240Z,79.90
2018-04-19T06:04:47.756Z,79.50
2018-04-19T06:07:15.284Z,78.50
2018-04-19T06:09:42.851Z,78.40
2018-04-19T06:12:10.382Z,78.10
2018-04-19T06:14:39.900Z,78.80
2018-04-19T06:17:07.445Z,79.60
2018-04-19T06:19:35.016Z,79.30
2018-04-19T06:22:02.555Z,79.20
2018-04-19T06:24:30.112Z,79.00
2018-04-19T06:26:57.646Z,78.70
2018-04-19T06:29:25.172Z,75.90
2018-04-19T06:31:53.702Z,75.00
2018-04-19T06:34:21.257Z,73.80
2018-04-19T06:36:48.888Z,71.10
2018-04-19T06:39:16.525Z,70.00
2018-04-19T06:41:44.045Z,69.80
2018-04-19T06:44:12.604Z,69.50
2018-04-19T06:46:40.911Z,69.50
2018-04-19T06:49:08.468Z,69.60
2018-04-19T06:51:36.000Z,69.40
2018-04-19T06:54:03.548Z,69.10
2018-04-19T06:56:31.108Z,68.60
2018-04-19T06:58:59.417Z,67.70
2018-04-19T07:01:26.977Z,67.70
2018-04-19T07:03:54.505Z,67.80
2018-04-19T07:06:22.075Z,68.10
2018-04-19T07:08:49.621Z,69.50
2018-04-19T07:11:18.092Z,69.60
2018-04-19T07:13:45.652Z,68.90
2018-04-19T07:16:13.173Z,66.90
2018-04-19T07:18:40.686Z,65.90
2018-04-19T07:21:09.029Z,62.60
2018-04-19T07:23:36.557Z,62.70
2018-04-19T07:26:04.129Z,61.30
2018-04-19T07:28:31.664Z,61.20
2018-04-19T07:30:59.184Z,61.60
2018-04-19T07:33:27.497Z,60.20
2018-04-19T07:35:55.019Z,60.10
2018-04-19T07:38:22.597Z,60.00
2018-04-19T07:40:50.885Z,60.10
2018-04-19T07:43:18.413Z,60.10
2018-04-19T07:45:45.987Z,59.80
2018-04-19T07:48:14.281Z,58.90
2018-04-19T07:50:41.861Z,58.90
2018-04-19T07:53:09.604Z,57.60
2018-04-19T07:55:37.185Z,56.20
2018-04-19T07:58:06.176Z,56.50
2018-04-19T08:00:33.701Z,57.00
2018-04-19T08:03:02.036Z,54.90
2018-04-19T08:05:30.796Z,54.90
2018-04-19T08:07:58.344Z,51.30
2018-04-19T08:10:25.889Z,50.90
2018-04-19T08:12:53.437Z,50.40
2018-04-19T08:15:21.730Z,50.80
2018-04-19T08:17:49.260Z,50.80
2018-04-19T08:20:16.895Z,50.90
2018-04-19T08:22:44.409Z,51.40
2018-04-19T08:25:12.729Z,52.60
2018-04-19T08:27:40.291Z,52.70
2018-04-19T08:30:07.851Z,53.60
2018-04-19T08:32:35.565Z,54.20
2018-04-19T08:35:03.085Z,53.80
2018-04-19T08:37:30.675Z,53.40
2018-04-19T08:39:58.969Z,56.00
2018-04-19T08:42:28.473Z,56.00
2018-04-19T08:44:56.004Z,55.00
2018-04-19T08:47:24.504Z,56.20
2018-04-19T08:49:52.062Z,55.70
2018-04-19T08:52:19.607Z,57.10
2018-04-19T08:54:47.160Z,57.70
2018-04-19T08:57:14.677Z,56.80
2018-04-19T08:59:42.239Z,56.50
2018-04-19T09:02:10.118Z,55.90
2018-04-19T09:04:37.677Z,54.10
2018-04-19T09:07:05.208Z,55.50
2018-04-19T09:09:32.782Z,52.90
2018-04-19T09:12:00.353Z,52.50
2018-04-19T09:14:27.903Z,52.40
2018-04-19T09:16:55.463Z,51.40
2018-04-19T09:19:22.988Z,51.90
2018-04-19T09:21:50.548Z,51.50
2018-04-19T09:24:18.113Z,50.60
2018-04-19T09:26:45.713Z,50.20
2018-04-19T09:29:13.323Z,48.90
2018-04-19T09:31:40.860Z,48.20
2018-04-19T09:34:09.171Z,49.80
2018-04-19T09:36:36.767Z,49.80
2018-04-19T09:39:04.310Z,49.00
2018-04-19T09:41:31.905Z,48.70
2018-04-19T09:43:59.465Z,49.10
2018-04-19T09:46:26.999Z,49.10
2018-04-19T09:48:54.553Z,48.70
2018-04-19T09:51:23.065Z,47.40
2018-04-19T09:53:50.689Z,48.30
2018-04-19T09:56:18.173Z,47.40
2018-04-19T09:58:45.751Z,46.10
2018-04-19T10:01:13.297Z,46.30
2018-04-19T10:03:46.545Z,45.50
2018-04-19T10:06:14.108Z,45.50
2018-04-19T10:08:41.653Z,45.10
2018-04-19T10:11:09.238Z,44.40
2018-04-19T10:13:36.749Z,44.10
2018-04-19T10:16:05.115Z,44.70
2018-04-19T10:18:32.641Z,44.80
2018-04-19T10:21:01.137Z,43.20
2018-04-19T10:23:28.685Z,45.30
2018-04-19T10:25:56.231Z,45.90
2018-04-19T10:28:24.764Z,44.90
2018-04-19T10:30:52.300Z,45.90
2018-04-19T10:33:19.854Z,45.90
2018-04-19T10:35:48.332Z,45.10
2018-04-19T10:38:15.868Z,44.70
2018-04-19T10:40:43.443Z,45.40
2018-04-19T10:43:15.745Z,43.70
2018-04-19T10:45:43.309Z,43.60
2018-04-19T10:48:10.857Z,44.30
2018-04-19T10:50:38.468Z,41.30
2018-04-19T10:53:06.011Z,42.30
2018-04-19T10:55:33.569Z,43.80
2018-04-19T10:58:01.129Z,45.50
2018-04-19T11:00:28.652Z,44.00
2018-04-19T11:02:56.204Z,44.60
2018-04-19T11:05:23.754Z,43.10
2018-04-19T11:07:52.274Z,42.20
2018-04-19T11:10:19.836Z,42.40
2018-04-19T11:12:48.153Z,41.10
2018-04-19T11:15:15.712Z,41.10
2018-04-19T11:17:43.517Z,41.00
2018-04-19T11:20:11.861Z,41.60
2018-04-19T11:22:39.392Z,41.50
2018-04-19T11:25:06.952Z,39.60
2018-04-19T11:27:35.447Z,39.30
2018-04-19T11:30:03.189Z,40.00
2018-04-19T11:32:30.757Z,40.30
2018-04-19T11:34:58.394Z,40.40
2018-04-19T11:37:25.966Z,40.50
2018-04-19T11:39:53.490Z,40.10
2018-04-19T11:42:21.049Z,39.20
2018-04-19T11:44:49.341Z,37.60
2018-04-19T11:47:16.888Z,37.50
2018-04-19T11:49:45.473Z,37.60
2018-04-19T11:52:13.765Z,38.80
2018-04-19T11:54:41.355Z,38.20
2018-04-19T11:57:08.898Z,38.00
2018-04-19T11:59:36.441Z,37.40
2018-04-19T12:02:03.980Z,37.10
2018-04-19T12:04:31.523Z,37.90
2018-04-19T12:07:01.917Z,36.10
2018-04-19T12:09:29.479Z,36.00
2018-04-19T12:11:58.073Z,35.60
2018-04-19T12:14:25.628Z,36.30
2018-04-19T12:16:54.153Z,36.30
2018-04-19T12:19:21.704Z,35.40
2018-04-19T12:21:50.992Z,33.60
2018-04-19T12:24:20.969Z,33.50
2018-04-19T12:26:49.486Z,32.60
2018-04-19T12:29:18.004Z,34.10
2018-04-19T12:31:46.309Z,32.60
2018-04-19T12:34:15.817Z,32.60
2018-04-19T12:36:43.345Z,32.50
2018-04-19T12:39:10.888Z,32.60
2018-04-19T12:41:38.438Z,33.10
2018-04-19T12:44:06.937Z,34.50
2018-04-19T12:46:34.509Z,34.60
2018-04-19T12:49:02.078Z,34.60
2018-04-19T12:51:29.629Z,32.90
2018-04-19T12:53:57.157Z,32.20
2018-04-19T12:56:24.731Z,31.80
2018-04-19T12:58:52.276Z,33.50
2018-04-19T13:01:19.800Z,33.10
2018-04-19T13:03:47.574Z,32.90
2018-04-19T13:06:15.109Z,33.00
2018-04-19T13:08:42.670Z,32.50
2018-04-19T13:11:10.201Z,31.90
2018-04-19T13:13:37.721Z,31.40
2018-04-19T13:16:05.285Z,33.50
2018-04-19T13:18:32.828Z,34.10
2018-04-19T13:21:00.409Z,34.20
2018-04-19T13:23:27.938Z,34.00
2018-04-19T13:25:55.493Z,32.20
2018-04-19T13:28:23.037Z,31.20
2018-04-19T13:30:50.583Z,32.30
2018-04-19T13:33:18.141Z,31.70
2018-04-19T13:35:45.669Z,31.80
2018-04-19T13:38:13.223Z,32.70
2018-04-19T13:40:40.769Z,31.40
2018-04-19T13:43:08.321Z,30.10
2018-04-19T13:45:35.857Z,29.20
2018-04-19T13:48:03.379Z,28.70
2018-04-19T13:50:31.688Z,29.60
2018-04-19T13:52:59.235Z,29.60
2018-04-19T13:55:26.789Z,28.40
2018-04-19T13:57:54.333Z,29.20
2018-04-19T14:00:21.896Z,29.10
2018-04-19T14:02:49.432Z,28.50
2018-04-19T14:05:16.953Z,27.80
2018-04-19T14:07:44.500Z,29.10
2018-04-19T14:10:13.001Z,28.40
2018-04-19T14:12:40.545Z,27.90
2018-04-19T14:15:08.077Z,27.30
2018-04-19T14:17:35.624Z,27.70
2018-04-19T14:20:03.140Z,28.10
2018-04-19T14:22:35.116Z,28.30
2018-04-19T14:25:02.677Z,28.70
2018-04-19T14:27:30.215Z,29.30
2018-04-19T14:29:57.764Z,28.60
2018-04-19T14:32:25.299Z,28.40
2018-04-19T14:34:52.849Z,27.70
2018-04-19T14:37:21.138Z,30.00
2018-04-19T14:39:49.620Z,30.00
2018-04-19T14:42:17.166Z,31.00
2018-04-19T14:44:45.455Z,29.40
2018-04-19T14:47:13.021Z,29.30
2018-04-19T14:49:40.551Z,29.90
2018-04-19T14:52:08.109Z,28.80
2018-04-19T14:54:35.636Z,29.00
2018-04-19T14:57:03.166Z,28.40
2018-04-19T14:59:31.686Z,28.40
2018-04-19T15:01:59.212Z,27.00
2018-04-19T15:04:26.770Z,26.90
2018-04-19T15:06:54.293Z,26.80
2018-04-19T15:09:23.619Z,28.60
2018-04-19T15:11:51.876Z,29.20
2018-04-19T15:14:19.431Z,29.10
2018-04-19T15:16:47.005Z,28.90
2018-04-19T15:19:14.533Z,27.70
2018-04-19T15:21:42.099Z,26.80
2018-04-19T15:24:10.397Z,24.70
2018-04-19T15:26:37.957Z,24.60
2018-04-19T15:29:05.502Z,24.90
2018-04-19T15:31:33.832Z,25.00
2018-04-19T15:34:01.404Z,25.10
2018-04-19T15:36:28.935Z,24.70
2018-04-19T15:38:56.488Z,25.10
2018-04-19T15:41:24.011Z,25.10
2018-04-19T15:43:51.576Z,24.50
2018-04-19T15:46:19.113Z,24.60
2018-04-19T15:48:47.605Z,24.80
2018-04-19T15:51:15.313Z,25.30
2018-04-19T15:53:42.860Z,25.10
2018-04-19T15:56:10.464Z,25.30
2018-04-19T15:58:37.991Z,25.40
2018-04-19T16:01:06.510Z,25.90
2018-04-19T16:03:34.230Z,25.20
2018-04-19T16:06:01.777Z,25.50
2018-04-19T16:08:29.356Z,26.00
2018-04-19T16:10:56.893Z,25.60
2018-04-19T16:13:24.448Z,25.60
2018-04-19T16:15:51.971Z,25.50
2018-04-19T16:18:20.984Z,25.40
2018-04-19T16:20:48.553Z,26.20
2018-04-19T16:23:17.048Z,27.40
2018-04-19T16:25:44.605Z,29.10
2018-04-19T16:28:12.167Z,29.70
2018-04-19T16:30:41.428Z,32.20
2018-04-19T16:33:08.952Z,32.20
2018-04-19T16:35:36.511Z,32.70
2018-04-19T16:38:04.037Z,33.10
2018-04-19T16:40:32.508Z,33.50
2018-04-19T16:43:00.830Z,35.10
2018-04-19T16:45:28.376Z,35.10
2018-04-19T16:47:55.930Z,35.20
2018-04-19T16:50:23.455Z,35.20
2018-04-19T16:52:51.020Z,35.90
2018-04-19T16:55:18.549Z,36.20
2018-04-19T16:57:46.845Z,37.30
2018-04-19T17:00:14.437Z,36.80
2018-04-19T17:02:42.009Z,37.50
2018-04-19T17:05:10.556Z,37.50
2018-04-19T17:07:38.075Z,38.30
2018-04-19T17:10:06.027Z,37.90
2018-04-19T17:12:33.579Z,38.50
2018-04-19T17:15:01.125Z,38.40
2018-04-19T17:17:28.688Z,38.50
2018-04-19T17:19:56.234Z,38.30
2018-04-19T17:22:23.783Z,39.50
2018-04-19T17:24:51.320Z,45.20
2018-04-19T17:27:19.649Z,47.10
2018-04-19T17:29:47.177Z,47.00
2018-04-19T17:32:14.736Z,47.50
2018-04-19T17:34:42.295Z,48.20
2018-04-19T17:37:09.823Z,49.00
2018-04-19T17:39:37.423Z,49.40
2018-04-19T17:42:05.937Z,49.30
2018-04-19T17:44:33.508Z,49.90
2018-04-19T17:47:01.041Z,50.90
2018-04-19T17:49:28.569Z,51.70
2018-04-19T17:51:56.892Z,53.20
2018-04-19T17:54:24.416Z,53.10
2018-04-19T17:56:52.015Z,53.80
2018-04-19T17:59:19.555Z,54.40
2018-04-19T18:01:47.112Z,55.50
2018-04-19T18:04:14.654Z,56.10
2018-04-19T18:06:42.201Z,56.60
2018-04-19T18:09:09.769Z,57.40
2018-04-19T18:11:37.311Z,58.20
2018-04-19T18:14:05.637Z,59.40
2018-04-19T18:16:33.173Z,59.40
2018-04-19T18:19:00.725Z,60.10
2018-04-19T18:21:28.287Z,61.20
2018-04-19T18:23:55.825Z,62.50
2018-04-19T18:26:24.158Z,65.00
2018-04-19T18:28:52.859Z,65.00
2018-04-19T18:31:21.183Z,65.40
2018-04-19T18:33:48.701Z,66.00
2018-04-19T18:36:16.296Z,66.40
2018-04-19T18:38:43.823Z,67.20
2018-04-19T18:41:11.360Z,67.30
2018-04-19T18:43:38.936Z,67.80
2018-04-19T18:46:07.240Z,68.40
2018-04-19T18:48:36.594Z,68.90
2018-04-19T18:51:04.126Z,68.80
2018-04-19T18:53:31.685Z,69.00
2018-04-19T18:55:59.245Z,68.70
2018-04-19T18:58:26.789Z,69.90
2018-04-19T19:00:54.399Z,68.70
2018-04-19T19:03:21.923Z,68.40
2018-04-19T19:05:49.476Z,68.70
2018-04-19T19:08:17.016Z,68.20
2018-04-19T19:10:45.579Z,68.40
2018-04-19T19:13:13.097Z,68.40
2018-04-19T19:19:00.795Z,68.00
2018-04-19T19:21:30.248Z,69.30
2018-04-19T19:23:58.827Z,69.00
2018-04-19T19:26:26.338Z,68.20
2018-04-19T19:28:53.870Z,68.10
2018-04-19T19:31:21.433Z,68.30
2018-04-19T19:33:49.007Z,68.40
2018-04-19T19:36:16.534Z,68.20
2018-04-19T19:38:44.096Z,68.10
2018-04-19T19:41:11.628Z,69.00
2018-04-19T19:43:40.148Z,67.00
2018-04-19T19:46:07.699Z,66.20
2018-04-19T19:48:35.223Z,66.00
2018-04-19T19:51:02.805Z,65.70
2018-04-19T19:53:30.345Z,65.90
2018-04-19T19:55:57.920Z,66.40
2018-04-19T19:58:25.536Z,66.50
2018-04-19T20:00:54.114Z,66.60
2018-04-19T20:03:21.679Z,66.60
2018-04-19T20:05:50.026Z,68.70
2018-04-19T20:08:17.599Z,68.70
2018-04-19T20:10:45.137Z,68.20
2018-04-19T20:13:12.694Z,69.50
2018-04-19T20:15:41.005Z,68.90
2018-04-19T20:18:08.600Z,68.70
2018-04-19T20:20:36.134Z,68.50
2018-04-19T20:23:05.637Z,68.30
2018-04-19T20:25:33.178Z,68.60
2018-04-19T20:28:00.714Z,68.50
2018-04-19T20:30:28.274Z,67.40
2018-04-19T20:32:55.814Z,68.20
2018-04-19T20:35:23.384Z,68.60
2018-04-19T20:37:51.925Z,68.40
2018-04-19T20:40:19.484Z,68.10
2018-04-19T20:42:47.775Z,69.30
2018-04-19T20:45:15.310Z,69.30
2018-04-19T20:47:42.878Z,71.90
2018-04-19T20:50:10.451Z,73.00
2018-04-19T20:52:38.016Z,73.40
2018-04-19T20:55:06.285Z,73.30
2018-04-19T20:57:33.844Z,71.60
2018-04-19T21:00:01.377Z,72.20
2018-04-19T21:02:29.691Z,73.20
2018-04-19T21:04:57.266Z,73.20
2018-04-19T21:07:24.822Z,72.70
2018-04-19T21:09:52.401Z,72.70
2018-04-19T21:12:19.935Z,74.20
2018-04-19T21:14:47.491Z,74.30
2018-04-19T21:17:15.149Z,74.20
2018-04-19T21:19:42.715Z,73.50
2018-04-19T21:22:11.206Z,74.80
2018-04-19T21:24:38.961Z,74.70
2018-04-19T21:27:08.450Z,74.50
2018-04-19T21:29:36.151Z,74.80
2018-04-19T21:32:04.709Z,76.50
2018-04-19T21:34:32.244Z,76.10
2018-04-19T21:37:00.731Z,76.20
2018-04-19T21:39:28.265Z,77.40
2018-04-19T21:41:55.808Z,79.00
2018-04-19T21:44:23.377Z,80.60
2018-04-19T21:46:50.905Z,81.00
2018-04-19T21:49:18.452Z,81.60
2018-04-19T21:51:45.979Z,81.10
2018-04-19T21:54:13.520Z,81.60
2018-04-19T21:56:41.053Z,81.20
2018-04-19T21:59:08.574Z,80.30
2018-04-19T22:01:37.245Z,80.50
2018-04-19T22:04:04.777Z,79.80
2018-04-19T22:06:33.099Z,78.50
2018-04-19T22:09:01.625Z,78.30
2018-04-19T22:11:30.178Z,79.10
2018-04-19T22:13:57.715Z,79.20
2018-04-19T22:16:25.240Z,79.90
2018-04-19T22:18:52.803Z,80.80
2018-04-19T22:21:20.334Z,80.90
2018-04-19T22:23:47.890Z,81.10
2018-04-19T22:26:15.429Z,81.50
2018-04-19T22:28:42.982Z,81.70
2018-04-19T22:31:10.531Z,82.00
2018-04-19T22:33:38.153Z,81.20
2018-04-19T22:36:06.301Z,81.20
2018-04-19T22:38:33.842Z,80.70
2018-04-19T22:41:01.509Z,80.50
2018-04-19T22:43:29.046Z,80.50
2018-04-19T22:45:56.602Z,80.50
2018-04-19T22:48:24.141Z,80.90
2018-04-19T22:50:51.685Z,80.90
2018-04-19T22:53:20.021Z,81.30
2018-04-19T22:55:47.545Z,81.30
2018-04-19T22:58:15.120Z,81.80
2018-04-19T23:00:42.648Z,82.20
2018-04-19T23:03:10.964Z,82.70
2018-04-19T23:05:38.588Z,82.70
2018-04-19T23:08:06.896Z,83.40
2018-04-19T23:10:35.412Z,83.30
2018-04-19T23:13:03.707Z,83.40
2018-04-19T23:15:31.255Z,83.40
2018-04-19T23:17:59.751Z,83.30
2018-04-19T23:20:29.076Z,82.90
2018-04-19T23:22:56.608Z,83.00
2018-04-19T23:25:24.120Z,83.60
2018-04-19T23:27:51.675Z,82.90
2018-04-19T23:30:19.202Z,83.00
2018-04-19T23:32:46.769Z,83.40
2018-04-19T23:35:14.303Z,83.60
2018-04-19T23:37:41.930Z,83.60
2018-04-19T23:40:09.452Z,83.40
2018-04-19T23:42:37.959Z,83.30
2018-04-19T23:45:06.222Z,84.00
2018-04-19T23:47:33.802Z,84.60
2018-04-19T23:50:01.354Z,85.40
2018-04-19T23:52:29.883Z,85.00
2018-04-19T23:54:58.205Z,85.60
2018-04-19T23:57:25.740Z,85.60
2018-04-19T23:59:54.244Z,86.20
